Latest Weather Observations for Essendon Airport

IDV60801

Issued at 8:42 am EST Saturday 24 August 2019 (issued every 10 minutes, with the page automatically refreshed every 10 minutes)

About weather observations | Map of weather stations | Latest weather observations for VIC | Other Formats
Station Details ID: 086038 Name: ESSENDON AIRPORT Lat: -37.73 Lon: 144.91 Height: 78.4 m
Data from the previous 72 hours. | See also: Recent months at Essendon Airport
Date/Time
EST
Temp
°C
App
Temp
°C
Dew
Point
°C
Rel
Hum
%
Delta-T
°C
Wind Press
QNH
hPa
Press
MSL
hPa
Rain since
9am
mm
Dir  Spd
km/h
Gust
km/h
Spd
kts
Gust
kts
24/08:30am 9.3 2.1 2.9 64 2.7 N 30 43 16 23 1016.4 1016.5 0.0
24/08:00am 8.1 1.2 2.8 69 2.2 N 28 41 15 22 1017.0 1017.1 0.0
24/07:30am 7.3 1.2 2.6 72 2.0 N 24 35 13 19 1017.0 1017.1 0.0
24/07:00am 7.2 0.6 2.3 71 2.0 N 26 35 14 19 1016.9 1017.0 0.0
24/06:30am 7.6 0.7 2.3 69 2.2 N 28 37 15 20 1016.9 1017.0 0.0
24/06:00am 7.7 0.8 2.4 69 2.2 N 28 37 15 20 1017.0 1017.1 0.0
24/05:30am 8.0 1.1 2.5 68 2.3 N 28 35 15 19 1017.3 1017.4 0.0
24/05:00am 8.5 1.6 2.3 65 2.6 N 28 39 15 21 1017.1 1017.2 0.0
24/04:30am 8.8 3.0 2.4 64 2.7 NNW 22 33 12 18 1017.2 1017.3 0.0
24/04:00am 8.3 1.4 2.5 67 2.4 N 28 43 15 23 1016.5 1016.6 0.0
24/03:36am 8.8 1.5 2.6 65 2.6 N 30 48 16 26 1016.6 1016.7 0.0
24/03:30am 8.7 1.8 2.7 66 2.5 N 28 43 15 23 1016.6 1016.7 0.0
24/03:00am 8.6 2.5 2.8 67 2.5 N 24 35 13 19 1017.3 1017.4 0.0
24/02:30am 8.5 3.2 2.9 68 2.4 N 20 32 11 17 1017.9 1018.0 0.0
24/02:00am 8.7 3.0 3.1 68 2.4 N 22 30 12 16 1018.3 1018.4 0.0
24/01:30am 8.8 3.2 3.4 69 2.3 N 22 32 12 17 1018.4 1018.5 0.0
24/01:00am 8.9 2.6 3.5 69 2.3 N 26 39 14 21 1018.6 1018.7 0.0
24/12:30am 9.3 3.7 3.7 68 2.4 N 22 33 12 18 1018.8 1018.9 0.0
24/12:00am 9.3 4.3 3.7 68 2.4 N 19 28 10 15 1019.1 1019.2 0.0
 
Date/Time
EST
Temp
°C
App
Temp
°C
Dew
Point
°C
Rel
Hum
%
Delta-T
°C
Wind Press
QNH
hPa
Press
MSL
hPa
Rain since
9am
mm
Dir  Spd
km/h
Gust
km/h
Spd
kts
Gust
kts
23/11:30pm 9.7 4.8 4.1 68 2.5 N 19 33 10 18 1019.1 1019.2 0.0
23/11:00pm 9.7 4.8 4.1 68 2.5 N 19 28 10 15 1019.1 1019.2 0.0
23/10:30pm 10.2 5.0 3.7 64 2.9 N 20 30 11 16 1019.6 1019.7 0.0
23/10:00pm 9.8 4.7 3.3 64 2.8 N 19 26 10 14 1020.0 1020.1 0.0
23/09:30pm 10.0 5.0 3.5 64 2.8 N 19 28 10 15 1020.3 1020.4 0.0
23/09:00pm 10.5 5.9 3.5 62 3.1 N 17 26 9 14 1020.7 1020.8 0.0
23/08:30pm 10.6 5.5 3.2 60 3.2 NNW 19 28 10 15 1020.9 1021.0 0.0
23/08:00pm 10.3 5.3 3.8 64 2.9 N 19 28 10 15 1020.8 1020.9 0.0
23/07:30pm 10.8 5.7 4.0 63 3.0 N 20 33 11 18 1020.7 1020.8 0.0
23/07:00pm 10.7 5.8 4.0 63 3.0 N 19 26 10 14 1020.6 1020.7 0.0
23/06:30pm 11.2 5.4 4.2 62 3.1 N 24 35 13 19 1020.0 1020.1 0.0
23/06:00pm 11.8 5.6 4.3 60 3.4 N 26 39 14 21 1020.2 1020.3 0.0
23/05:30pm 12.4 5.8 4.4 58 3.6 N 28 41 15 22 1020.2 1020.3 0.0
23/05:00pm 13.1 5.9 4.8 57 3.8 N 32 44 17 24 1020.0 1020.1 0.0
23/04:30pm 13.5 6.7 4.9 56 4.0 N 30 43 16 23 1020.1 1020.2 0.0
23/04:00pm 13.8 6.6 5.7 58 3.8 N 33 54 18 29 1020.0 1020.1 0.0
23/03:52pm 14.0 7.6 5.4 56 4.1 N 28 54 15 29 1020.0 1020.1 0.0
23/03:30pm 14.2 7.2 6.1 58 3.9 N 32 41 17 22 1020.1 1020.2 0.0
23/03:16pm 14.3 7.2 5.7 56 4.1 N 32 50 17 27 1020.2 1020.3 0.0
23/03:00pm 14.0 6.4 5.6 57 4.0 N 35 48 19 26 1020.1 1020.2 0.0
23/02:30pm 14.0 6.7 5.4 56 4.1 N 33 44 18 24 1020.5 1020.6 0.0
23/02:08pm 14.0 6.9 5.4 56 4.1 N 32 52 17 28 1020.9 1021.0 0.0
23/02:00pm 14.1 7.0 5.7 57 4.0 N 32 44 17 24 1021.0 1021.1 0.0
23/01:30pm 14.2 7.6 6.1 58 3.9 N 30 43 16 23 1021.6 1021.7 0.0
23/01:00pm 13.6 6.9 5.5 58 3.8 N 30 41 16 22 1022.1 1022.2 0.0
23/12:30pm 13.5 7.5 5.4 58 3.8 N 26 39 14 21 1022.9 1023.0 0.0
23/12:00pm 12.9 7.6 4.8 58 3.7 N 22 32 12 17 1023.4 1023.5 0.0
23/11:30am 12.5 8.1 4.5 58 3.7 N 17 28 9 15 1024.1 1024.2 0.0
23/11:00am 11.4 6.9 4.2 61 3.2 N 17 24 9 13 1024.7 1024.8 0.0
23/10:30am 10.8 7.4 4.0 63 3.0 NW 11 17 6 9 1025.2 1025.4 0.0
23/10:00am 10.2 6.7 3.7 64 2.8 NW 11 17 6 9 1025.4 1025.6 0.0
23/09:30am 9.1 6.0 3.5 68 2.4 NW 9 13 5 7 1025.6 1025.8 0.0
23/09:00am 8.1 4.7 3.8 74 1.8 NW 11 15 6 8 1025.7 1025.9 0.2
23/08:30am 6.1 2.5 3.1 81 1.3 NNW 11 11 6 6 1025.7 1025.9 0.2
23/08:00am 4.7 1.0 2.6 86 0.8 NNW 11 17 6 9 1025.7 1025.9 0.2
23/07:30am 3.8 -0.4 1.8 87 0.8 NNW 13 15 7 8 1025.6 1025.8 0.2
23/07:00am 3.5 -0.7 1.7 88 0.7 NNW 13 15 7 8 1025.4 1025.6 0.2
23/06:30am 3.4 -0.8 1.8 89 0.6 NNW 13 15 7 8 1025.3 1025.5 0.2
23/06:00am 3.3 -0.9 1.8 90 0.6 NW 13 15 7 8 1025.3 1025.5 0.2
23/05:30am 3.2 -0.6 1.9 91 0.5 NNW 11 13 6 7 1025.1 1025.3 0.2
23/05:00am 2.8 -0.7 1.5 91 0.5 NNW 9 11 5 6 1025.0 1025.2 0.2
23/04:30am 3.2 -0.6 1.9 91 0.5 NNW 11 13 6 7 1025.0 1025.2 0.2
23/04:00am 2.3 -1.2 1.4 94 0.3 N 9 11 5 6 1025.1 1025.3 0.2
23/03:30am 2.3 -0.8 1.3 93 0.4 W 7 9 4 5 1025.3 1025.5 0.2
23/03:00am 3.1 0.1 1.9 92 0.5 W 7 9 4 5 1025.5 1025.7 0.2
23/02:30am 3.7 0.8 2.4 91 0.5 W 7 9 4 5 1025.7 1025.9 0.2
23/02:00am 4.0 1.3 2.4 89 0.6 W 6 7 3 4 1026.0 1026.2 0.2
23/01:30am 5.2 2.4 3.2 87 0.8 W 7 7 4 4 1026.2 1026.4 0.2
23/01:00am 4.8 1.8 2.3 84 1.0 W 7 11 4 6 1026.3 1026.5 0.2
23/12:30am 5.6 2.0 3.1 84 1.0 W 11 11 6 6 1026.4 1026.6 0.2
23/12:00am 6.5 3.1 3.8 83 1.1 WNW 11 15 6 8 1026.5 1026.7 0.2
 
Date/Time
EST
Temp
°C
App
Temp
°C
Dew
Point
°C
Rel
Hum
%
Delta-T
°C
Wind Press
QNH
hPa
Press
MSL
hPa
Rain since
9am
mm
Dir  Spd
km/h
Gust
km/h
Spd
kts
Gust
kts
22/11:30pm 7.1 3.7 4.1 81 1.3 WSW 11 13 6 7 1026.5 1026.7 0.2
22/11:00pm 6.6 3.2 4.1 84 1.1 WSW 11 13 6 7 1026.5 1026.7 0.2
22/10:30pm 7.4 4.1 4.7 83 1.2 WSW 11 15 6 8 1026.6 1026.8 0.2
22/10:00pm 7.7 4.8 4.7 81 1.3 SW 9 11 5 6 1026.8 1027.0 0.2
22/09:30pm 8.5 6.1 5.1 79 1.5 SW 7 9 4 5 1026.7 1026.9 0.2
22/09:00pm 8.0 4.8 4.9 81 1.4 SW 11 13 6 7 1026.7 1026.9 0.2
22/08:30pm 8.6 6.1 5.0 78 1.6 SSW 7 11 4 6 1026.8 1027.0 0.2
22/08:00pm 8.9 5.6 4.7 75 1.9 SSW 11 17 6 9 1026.3 1026.5 0.2
22/07:30pm 9.5 6.2 4.7 72 2.1 SSW 11 15 6 8 1026.4 1026.6 0.2
22/07:00pm 9.7 5.7 5.1 73 2.1 S 15 22 8 12 1026.0 1026.2 0.2
22/06:30pm 9.8 5.8 5.0 72 2.2 S 15 20 8 11 1025.8 1026.0 0.2
22/06:00pm 9.9 5.9 4.7 70 2.3 S 15 22 8 12 1025.6 1025.8 0.2
22/05:30pm 10.3 5.4 4.9 69 2.4 SSE 20 32 11 17 1025.3 1025.5 0.2
22/05:00pm 10.9 5.2 4.8 66 2.8 S 24 35 13 19 1025.1 1025.3 0.2
22/04:30pm 11.1 5.0 4.8 65 2.9 S 26 35 14 19 1024.8 1024.9 0.2
22/04:00pm 11.5 5.1 5.2 65 2.9 S 28 39 15 21 1024.6 1024.7 0.2
22/03:30pm 11.9 5.4 4.9 62 3.2 S 28 39 15 21 1024.2 1024.3 0.2
22/03:00pm 11.7 5.4 3.5 57 3.6 S 26 35 14 19 1024.3 1024.4 0.2
22/02:30pm 11.9 4.4 4.6 61 3.3 S 33 44 18 24 1024.1 1024.2 0.2
22/02:00pm 11.8 4.8 6.1 68 2.7 S 32 43 17 23 1024.1 1024.2 0.2
22/01:30pm 11.2 4.4 5.1 66 2.8 SSW 30 43 16 23 1023.8 1023.9 0.2
22/01:00pm 12.2 5.5 5.8 65 3.0 SSW 30 44 16 24 1023.8 1023.9 0.2
22/12:30pm 11.7 5.0 5.6 66 2.8 S 30 43 16 23 1023.9 1024.0 0.2
22/12:00pm 11.1 4.4 5.6 69 2.5 SSW 30 43 16 23 1024.0 1024.1 0.2
22/11:55am 11.0 4.0 6.0 71 2.3 S 32 50 17 27 1024.0 1024.1 0.2
22/11:30am 11.5 5.2 5.8 68 2.7 SSW 28 37 15 20 1023.8 1023.9 0.2
22/11:00am 11.8 5.0 5.2 64 3.0 SSW 30 43 16 23 1023.6 1023.7 0.2
22/10:50am 11.6 5.2 5.0 64 3.0 SW 28 46 15 25 1023.8 1023.9 0.2
22/10:30am 11.2 4.2 6.1 71 2.4 SSW 32 43 17 23 1023.5 1023.6 0.2
22/10:00am 11.6 4.5 5.7 67 2.7 SW 32 52 17 28 1023.1 1023.2 0.0
22/09:56am 11.1 4.2 4.8 65 2.9 SW 30 52 16 28 1023.0 1023.1 0.0
22/09:30am 11.1 5.2 5.6 69 2.5 SW 26 41 14 22 1022.8 1022.9 0.0
22/09:00am 10.7 4.7 5.5 70 2.4 SW 26 33 14 18 1022.5 1022.6 1.8
22/08:30am 9.5 4.6 5.3 75 1.9 SW 20 28 11 15 1022.3 1022.4 1.8
22/08:00am 9.2 4.1 5.8 79 1.6 SSW 22 28 12 15 1021.9 1022.0 1.8
22/07:30am 8.6 4.0 6.7 88 0.9 SW 20 30 11 16 1021.3 1021.4 1.8
22/07:00am 8.7 3.9 7.3 91 0.7 SW 22 28 12 15 1020.9 1021.0 1.8
22/06:50am 9.0 3.1 7.5 90 0.7 SW 28 39 15 21 1020.8 1020.9 1.8
22/06:30am 9.2 5.5 8.0 92 0.6 SW 17 20 9 11 1020.6 1020.7 1.4
22/06:00am 8.9 5.2 8.0 94 0.4 SW 17 22 9 12 1020.1 1020.2 1.4
22/05:42am 8.9 3.9 8.0 94 0.4 SW 24 35 13 19 1019.8 1019.9 1.4
22/05:30am 9.3 2.3 8.4 94 0.4 SW 35 48 19 26 1019.7 1019.8 1.2
22/05:24am 9.5 2.5 8.4 93 0.5 SW 35 48 19 26 1019.7 1019.8 0.8
22/05:22am 9.6 2.9 8.2 91 0.7 SW 33 46 18 25 1019.7 1019.8 0.6
22/05:00am 9.9 5.2 7.7 86 1.1 WSW 22 28 12 15 1019.3 1019.4 0.4
22/04:30am 9.8 5.1 7.7 87 1.0 WSW 22 32 12 17 1019.2 1019.3 0.4
22/04:00am 10.4 4.1 7.6 83 1.3 WSW 30 39 16 21 1018.7 1018.8 0.4
22/03:30am 10.7 4.6 8.1 84 1.3 SW 30 37 16 20 1018.4 1018.5 0.4
22/03:00am 10.8 4.4 8.6 86 1.1 WSW 32 43 17 23 1018.1 1018.2 0.4
22/02:30am 11.0 4.7 8.9 87 1.0 WSW 32 44 17 24 1018.0 1018.1 0.4
22/02:00am 11.3 4.4 9.0 86 1.1 WSW 35 54 19 29 1018.1 1018.2 0.4
22/01:30am 11.4 4.6 9.1 86 1.2 WSW 35 54 19 29 1018.0 1018.1 0.4
22/01:28am 11.4 4.6 9.3 87 1.1 WSW 35 54 19 29 1018.1 1018.2 0.4
22/01:00am 11.2 4.5 9.8 91 0.7 WSW 35 48 19 26 1018.1 1018.2 0.4
22/12:49am 11.1 3.7 10.0 93 0.6 WSW 39 57 21 31 1017.9 1018.0 0.4
22/12:46am 11.1 4.1 10.0 93 0.6 WSW 37 57 20 31 1017.7 1017.8 0.4
22/12:37am 11.2 5.0 10.1 93 0.6 WSW 33 46 18 25 1017.6 1017.7 0.4
22/12:30am 11.3 4.3 9.9 91 0.7 WSW 37 48 20 26 1017.4 1017.5 0.2
22/12:07am 11.5 3.3 9.8 89 0.9 WSW 43 57 23 31 1017.3 1017.4 0.2
22/12:00am 12.2 5.3 8.9 80 1.7 WSW 35 57 19 31 1017.1 1017.2 0.0
 
Date/Time
EST
Temp
°C
App
Temp
°C
Dew
Point
°C
Rel
Hum
%
Delta-T
°C
Wind Press
QNH
hPa
Press
MSL
hPa
Rain since
9am
mm
Dir  Spd
km/h
Gust
km/h
Spd
kts
Gust
kts
21/11:31pm 12.3 3.8 8.6 78 1.8 W 43 61 23 33 1016.9 1017.0 0.0
21/11:30pm 12.2 3.6 8.7 79 1.7 W 44 61 24 33 1017.0 1017.1 0.0
21/11:22pm 12.3 4.2 8.6 78 1.8 W 41 61 22 33 1016.9 1017.0 0.0
21/11:00pm 12.3 5.7 8.6 78 1.8 W 33 44 18 24 1017.0 1017.1 0.0
21/10:50pm 12.1 5.1 8.6 79 1.7 WSW 35 46 19 25 1017.0 1017.1 0.0
21/10:35pm 11.6 3.6 9.0 84 1.3 WSW 41 59 22 32 1017.2 1017.3 0.0
21/10:33pm 11.8 4.1 8.8 82 1.5 WSW 39 57 21 31 1017.3 1017.4 0.0
21/10:30pm 12.6 4.8 8.1 74 2.2 WSW 39 54 21 29 1017.3 1017.4 0.0
21/10:00pm 12.9 5.2 7.1 68 2.8 W 37 57 20 31 1017.4 1017.5 0.0
21/09:58pm 12.9 5.3 7.4 69 2.7 W 37 57 20 31 1017.4 1017.5 0.0
21/09:30pm 12.9 5.7 7.6 70 2.6 W 35 52 19 28 1017.5 1017.6 0.0
21/09:08pm 12.9 6.7 7.8 71 2.5 W 30 50 16 27 1017.7 1017.8 0.0
21/09:00pm 12.7 6.9 8.0 73 2.3 W 28 39 15 21 1017.8 1017.9 0.0
21/08:30pm 12.9 6.4 8.0 72 2.4 W 32 43 17 23 1018.1 1018.2 0.0
21/08:04pm 13.1 5.9 7.5 69 2.7 W 35 54 19 29 1018.3 1018.4 0.0
21/08:00pm 13.2 6.0 7.6 69 2.7 W 35 50 19 27 1018.4 1018.5 0.0
21/07:30pm 13.0 7.9 7.7 70 2.6 W 24 33 13 18 1018.4 1018.5 0.0
21/07:00pm 12.7 7.9 7.4 70 2.6 W 22 32 12 17 1018.3 1018.4 0.0
21/06:30pm 12.9 6.9 6.9 67 2.9 W 28 37 15 20 1018.4 1018.5 0.0
21/06:00pm 13.0 5.5 6.4 64 3.2 WSW 35 48 19 26 1018.4 1018.5 0.0
21/05:30pm 13.4 5.9 6.5 63 3.3 WSW 35 56 19 30 1018.1 1018.2 0.0
21/05:24pm 13.5 6.4 6.4 62 3.4 WSW 33 56 18 30 1018.1 1018.2 0.0
21/05:00pm 13.6 6.1 6.5 62 3.4 WSW 35 50 19 27 1018.1 1018.2 0.0
21/04:30pm 14.0 6.7 7.3 64 3.3 WSW 35 52 19 28 1018.3 1018.4 0.0
21/04:13pm 14.3 6.6 7.1 62 3.5 WSW 37 56 20 30 1018.1 1018.2 0.0
21/04:00pm 14.2 6.2 7.3 63 3.4 WSW 39 52 21 28 1018.5 1018.6 0.0
21/03:30pm 14.6 7.1 6.2 57 4.1 WSW 35 57 19 31 1018.5 1018.6 0.0
21/03:00pm 15.0 7.5 6.3 56 4.2 WSW 35 56 19 30 1018.3 1018.4 0.0
21/02:59pm 15.3 8.3 6.8 57 4.2 WSW 33 52 18 28 1018.4 1018.5 0.0
21/02:30pm 14.5 5.7 8.0 65 3.3 WSW 44 54 24 29 1018.5 1018.6 0.0
21/02:18pm 15.1 8.3 6.9 58 4.0 WSW 32 54 17 29 1018.4 1018.5 0.0
21/02:00pm 14.3 7.2 6.4 59 3.8 WSW 33 44 18 24 1018.7 1018.8 0.0
21/01:30pm 14.1 5.8 6.0 58 3.9 WSW 39 52 21 28 1019.1 1019.2 0.0
21/01:00pm 15.5 8.8 8.3 62 3.6 WSW 33 46 18 25 1019.3 1019.4 0.0
21/12:30pm 14.1 5.3 7.4 64 3.3 WSW 43 63 23 34 1019.7 1019.8 0.0
21/12:11pm 15.2 7.8 8.2 63 3.5 WSW 37 56 20 30 1019.8 1019.9 0.0
21/12:00pm 15.3 7.8 8.1 62 3.6 WSW 37 46 20 25 1019.8 1019.9 0.0
21/11:43am 14.6 7.9 8.1 65 3.3 WSW 33 52 18 28 1020.0 1020.1 0.0
21/11:30am 15.0 7.7 8.7 66 3.2 WSW 37 48 20 26 1019.8 1019.9 0.0
21/11:01am 14.2 7.3 9.0 71 2.7 WSW 35 54 19 29 1020.1 1020.2 0.0
21/11:00am 13.8 6.5 8.6 71 2.6 WSW 37 54 20 29 1020.1 1020.2 0.0
21/10:30am 13.8 6.7 9.5 75 2.2 WSW 37 54 20 29 1019.7 1019.8 0.0
21/10:00am 12.9 6.0 8.8 76 2.1 WSW 35 57 19 31 1019.8 1019.9 0.0
21/09:56am 13.4 6.2 9.1 75 2.2 WSW 37 57 20 31 1019.8 1019.9 0.0
21/09:30am 12.7 6.3 9.3 80 1.7 WSW 33 46 18 25 1019.9 1020.0 0.0
21/09:00am 11.6 4.9 9.7 88 1.0 WSW 35 44 19 24 1019.9 1020.0 0.0

Other formats

Comma delimited format used in spreadsheet applications
http://www.bom.gov.au/fwo/IDV60801/IDV60801.95866.axf

JavaScript Object Notation format (JSON) in row-major order
http://www.bom.gov.au/fwo/IDV60801/IDV60801.95866.json

Data quality

Most of these data are generated automatically and are frequently updated. Quality checks on data are not normally performed. It is possible for incorrect values to appear. Refer to information at About Latest Weather Observations and please check the disclaimer before using these data.